sensor_id;sensor_type;location;lat;lon;timestamp;P1;durP1;ratioP1;P2;durP2;ratioP2
47958;SDS011;33718;50.910;-1.514;2023-03-01T00:00:16;10.30;;;7.70;;
47958;SDS011;33718;50.910;-1.514;2023-03-01T00:02:39;12.93;;;8.20;;
47958;SDS011;33718;50.910;-1.514;2023-03-01T00:04:48;10.52;;;7.78;;
47958;SDS011;33718;50.910;-1.514;2023-03-01T00:06:51;10.30;;;6.63;;
47958;SDS011;33718;50.910;-1.514;2023-03-01T00:11:06;11.70;;;7.93;;
47958;SDS011;33718;50.910;-1.514;2023-03-01T00:13:11;9.85;;;7.60;;
47958;SDS011;33718;50.910;-1.514;2023-03-01T00:17:17;10.35;;;8.43;;
47958;SDS011;33718;50.910;-1.514;2023-03-01T00:19:38;14.35;;;8.88;;
47958;SDS011;33718;50.910;-1.514;2023-03-01T00:21:58;10.05;;;8.90;;
47958;SDS011;33718;50.910;-1.514;2023-03-01T00:23:59;12.75;;;9.00;;
47958;SDS011;33718;50.910;-1.514;2023-03-01T00:26:11;11.85;;;9.60;;
47958;SDS011;33718;50.910;-1.514;2023-03-01T00:28:16;11.13;;;8.60;;
47958;SDS011;33718;50.910;-1.514;2023-03-01T00:30:17;11.43;;;8.43;;
47958;SDS011;33718;50.910;-1.514;2023-03-01T00:32:22;8.95;;;8.02;;
47958;SDS011;33718;50.910;-1.514;2023-03-01T00:34:26;9.05;;;7.85;;
47958;SDS011;33718;50.910;-1.514;2023-03-01T00:36:29;10.20;;;8.07;;
47958;SDS011;33718;50.910;-1.514;2023-03-01T00:38:35;8.33;;;7.30;;
47958;SDS011;33718;50.910;-1.514;2023-03-01T00:40:41;8.88;;;7.03;;
47958;SDS011;33718;50.910;-1.514;2023-03-01T00:42:42;10.07;;;7.00;;
47958;SDS011;33718;50.910;-1.514;2023-03-01T00:44:44;7.45;;;6.28;;
47958;SDS011;33718;50.910;-1.514;2023-03-01T00:46:51;9.80;;;7.35;;
47958;SDS011;33718;50.910;-1.514;2023-03-01T00:48:53;9.40;;;6.33;;
47958;SDS011;33718;50.910;-1.514;2023-03-01T00:50:57;8.18;;;6.40;;
47958;SDS011;33718;50.910;-1.514;2023-03-01T00:53:04;7.43;;;6.40;;
47958;SDS011;33718;50.910;-1.514;2023-03-01T00:55:25;10.70;;;5.03;;
47958;SDS011;33718;50.910;-1.514;2023-03-01T00:57:29;8.70;;;6.35;;
47958;SDS011;33718;50.910;-1.514;2023-03-01T00:59:33;7.00;;;5.90;;
47958;SDS011;33718;50.910;-1.514;2023-03-01T01:01:36;8.10;;;6.30;;
47958;SDS011;33718;50.910;-1.514;2023-03-01T01:03:38;10.07;;;5.90;;
47958;SDS011;33718;50.910;-1.514;2023-03-01T01:05:39;9.32;;;5.90;;
47958;SDS011;33718;50.910;-1.514;2023-03-01T01:07:44;11.83;;;5.97;;
47958;SDS011;33718;50.910;-1.514;2023-03-01T01:09:45;11.00;;;5.38;;
47958;SDS011;33718;50.910;-1.514;2023-03-01T01:11:48;10.95;;;6.40;;
47958;SDS011;33718;50.910;-1.514;2023-03-01T01:13:53;6.25;;;5.65;;
47958;SDS011;33718;50.910;-1.514;2023-03-01T01:15:59;8.07;;;5.93;;
47958;SDS011;33718;50.910;-1.514;2023-03-01T01:18:07;7.63;;;6.35;;
47958;SDS011;33718;50.910;-1.514;2023-03-01T01:20:11;6.97;;;5.88;;
47958;SDS011;33718;50.910;-1.514;2023-03-01T01:22:16;7.90;;;5.93;;
47958;SDS011;33718;50.910;-1.514;2023-03-01T01:24:18;6.53;;;5.75;;
47958;SDS011;33718;50.910;-1.514;2023-03-01T01:26:23;8.55;;;6.47;;
47958;SDS011;33718;50.910;-1.514;2023-03-01T01:28:25;8.13;;;5.57;;
47958;SDS011;33718;50.910;-1.514;2023-03-01T01:30:26;12.35;;;6.18;;
47958;SDS011;33718;50.910;-1.514;2023-03-01T01:32:34;12.70;;;6.45;;
47958;SDS011;33718;50.910;-1.514;2023-03-01T01:34:35;9.95;;;7.07;;
47958;SDS011;33718;50.910;-1.514;2023-03-01T01:36:37;8.93;;;6.10;;
47958;SDS011;33718;50.910;-1.514;2023-03-01T01:38:42;8.07;;;5.90;;
47958;SDS011;33718;50.910;-1.514;2023-03-01T01:40:46;6.75;;;6.13;;
47958;SDS011;33718;50.910;-1.514;2023-03-01T01:42:48;7.57;;;6.85;;
47958;SDS011;33718;50.910;-1.514;2023-03-01T01:45:15;10.25;;;6.20;;
47958;SDS011;33718;50.910;-1.514;2023-03-01T01:47:18;6.88;;;6.18;;
47958;SDS011;33718;50.910;-1.514;2023-03-01T01:49:26;8.75;;;6.20;;
47958;SDS011;33718;50.910;-1.514;2023-03-01T01:51:32;9.95;;;6.82;;
47958;SDS011;33718;50.910;-1.514;2023-03-01T01:53:40;6.57;;;5.88;;
47958;SDS011;33718;50.910;-1.514;2023-03-01T01:55:45;7.80;;;6.45;;
47958;SDS011;33718;50.910;-1.514;2023-03-01T01:57:49;7.47;;;6.40;;
47958;SDS011;33718;50.910;-1.514;2023-03-01T01:59:54;10.13;;;7.30;;
47958;SDS011;33718;50.910;-1.514;2023-03-01T02:01:56;8.43;;;6.63;;
47958;SDS011;33718;50.910;-1.514;2023-03-01T02:06:27;9.18;;;7.47;;
47958;SDS011;33718;50.910;-1.514;2023-03-01T02:08:35;7.43;;;6.65;;
47958;SDS011;33718;50.910;-1.514;2023-03-01T02:10:44;8.55;;;7.65;;
47958;SDS011;33718;50.910;-1.514;2023-03-01T02:12:46;9.52;;;7.60;;
47958;SDS011;33718;50.910;-1.514;2023-03-01T02:14:51;13.20;;;7.05;;
47958;SDS011;33718;50.910;-1.514;2023-03-01T02:18:59;9.35;;;7.20;;
47958;SDS011;33718;50.910;-1.514;2023-03-01T02:23:24;11.90;;;8.35;;
47958;SDS011;33718;50.910;-1.514;2023-03-01T02:27:44;10.73;;;8.85;;
47958;SDS011;33718;50.910;-1.514;2023-03-01T02:29:48;9.52;;;7.70;;
47958;SDS011;33718;50.910;-1.514;2023-03-01T02:31:53;12.18;;;8.52;;
47958;SDS011;33718;50.910;-1.514;2023-03-01T02:34:00;10.77;;;7.90;;
47958;SDS011;33718;50.910;-1.514;2023-03-01T02:36:25;10.18;;;8.38;;
47958;SDS011;33718;50.910;-1.514;2023-03-01T02:38:30;9.38;;;8.48;;
47958;SDS011;33718;50.910;-1.514;2023-03-01T02:41:00;9.23;;;8.23;;
47958;SDS011;33718;50.910;-1.514;2023-03-01T02:43:32;12.73;;;9.27;;
47958;SDS011;33718;50.910;-1.514;2023-03-01T02:45:52;11.20;;;9.00;;
47958;SDS011;33718;50.910;-1.514;2023-03-01T02:48:10;13.82;;;8.95;;
47958;SDS011;33718;50.910;-1.514;2023-03-01T02:52:47;12.27;;;9.82;;
47958;SDS011;33718;50.910;-1.514;2023-03-01T02:55:10;9.55;;;8.43;;
47958;SDS011;33718;50.910;-1.514;2023-03-01T02:57:29;12.05;;;9.20;;
47958;SDS011;33718;50.910;-1.514;2023-03-01T02:59:43;14.35;;;10.13;;
47958;SDS011;33718;50.910;-1.514;2023-03-01T03:01:54;13.80;;;10.68;;
47958;SDS011;33718;50.910;-1.514;2023-03-01T03:06:18;15.77;;;10.20;;
47958;SDS011;33718;50.910;-1.514;2023-03-01T03:08:32;15.32;;;11.35;;
47958;SDS011;33718;50.910;-1.514;2023-03-01T03:10:50;12.40;;;10.00;;
47958;SDS011;33718;50.910;-1.514;2023-03-01T03:13:14;13.63;;;10.15;;
47958;SDS011;33718;50.910;-1.514;2023-03-01T03:15:34;11.05;;;9.82;;
47958;SDS011;33718;50.910;-1.514;2023-03-01T03:17:40;12.25;;;8.93;;
47958;SDS011;33718;50.910;-1.514;2023-03-01T03:19:48;11.68;;;9.10;;
47958;SDS011;33718;50.910;-1.514;2023-03-01T03:21:49;11.95;;;8.75;;
47958;SDS011;33718;50.910;-1.514;2023-03-01T03:23:51;16.88;;;10.02;;
47958;SDS011;33718;50.910;-1.514;2023-03-01T03:25:52;10.85;;;9.40;;
47958;SDS011;33718;50.910;-1.514;2023-03-01T03:27:54;14.40;;;11.15;;
47958;SDS011;33718;50.910;-1.514;2023-03-01T03:29:59;14.15;;;9.23;;
47958;SDS011;33718;50.910;-1.514;2023-03-01T03:34:04;16.15;;;10.75;;
47958;SDS011;33718;50.910;-1.514;2023-03-01T03:36:06;14.25;;;10.70;;
47958;SDS011;33718;50.910;-1.514;2023-03-01T03:38:11;16.58;;;9.98;;
47958;SDS011;33718;50.910;-1.514;2023-03-01T03:40:22;16.70;;;10.75;;
47958;SDS011;33718;50.910;-1.514;2023-03-01T03:42:30;14.45;;;10.25;;
47958;SDS011;33718;50.910;-1.514;2023-03-01T03:44:31;14.38;;;10.15;;
47958;SDS011;33718;50.910;-1.514;2023-03-01T03:46:33;12.00;;;9.82;;
47958;SDS011;33718;50.910;-1.514;2023-03-01T03:48:42;13.68;;;10.02;;
47958;SDS011;33718;50.910;-1.514;2023-03-01T03:50:49;12.52;;;10.70;;
47958;SDS011;33718;50.910;-1.514;2023-03-01T03:52:54;13.18;;;9.95;;
47958;SDS011;33718;50.910;-1.514;2023-03-01T03:56:59;15.13;;;9.65;;
47958;SDS011;33718;50.910;-1.514;2023-03-01T03:59:04;14.52;;;10.93;;
47958;SDS011;33718;50.910;-1.514;2023-03-01T04:01:10;14.07;;;10.00;;
47958;SDS011;33718;50.910;-1.514;2023-03-01T04:03:12;15.85;;;10.57;;
47958;SDS011;33718;50.910;-1.514;2023-03-01T04:05:20;14.50;;;10.70;;
47958;SDS011;33718;50.910;-1.514;2023-03-01T04:07:21;13.88;;;10.18;;
47958;SDS011;33718;50.910;-1.514;2023-03-01T04:09:26;14.02;;;10.82;;
47958;SDS011;33718;50.910;-1.514;2023-03-01T04:11:33;14.02;;;11.88;;
47958;SDS011;33718;50.910;-1.514;2023-03-01T04:13:36;17.75;;;11.23;;
47958;SDS011;33718;50.910;-1.514;2023-03-01T04:15:37;16.92;;;11.20;;
47958;SDS011;33718;50.910;-1.514;2023-03-01T04:17:40;14.10;;;9.98;;
47958;SDS011;33718;50.910;-1.514;2023-03-01T04:19:45;13.50;;;10.55;;
47958;SDS011;33718;50.910;-1.514;2023-03-01T04:21:50;17.02;;;11.52;;
47958;SDS011;33718;50.910;-1.514;2023-03-01T04:23:57;18.30;;;11.85;;
47958;SDS011;33718;50.910;-1.514;2023-03-01T04:26:01;15.85;;;11.82;;
47958;SDS011;33718;50.910;-1.514;2023-03-01T04:28:03;15.32;;;12.40;;
47958;SDS011;33718;50.910;-1.514;2023-03-01T04:30:07;17.48;;;11.88;;
47958;SDS011;33718;50.910;-1.514;2023-03-01T04:32:09;16.10;;;12.20;;
47958;SDS011;33718;50.910;-1.514;2023-03-01T04:34:14;15.75;;;11.63;;
47958;SDS011;33718;50.910;-1.514;2023-03-01T04:36:19;16.13;;;11.95;;
47958;SDS011;33718;50.910;-1.514;2023-03-01T04:38:24;17.33;;;13.05;;
47958;SDS011;33718;50.910;-1.514;2023-03-01T04:40:28;18.08;;;12.75;;
47958;SDS011;33718;50.910;-1.514;2023-03-01T04:42:30;21.67;;;13.32;;
47958;SDS011;33718;50.910;-1.514;2023-03-01T04:44:32;17.73;;;13.35;;
47958;SDS011;33718;50.910;-1.514;2023-03-01T04:46:33;18.13;;;13.40;;
47958;SDS011;33718;50.910;-1.514;2023-03-01T04:48:39;17.38;;;12.57;;
47958;SDS011;33718;50.910;-1.514;2023-03-01T04:50:41;15.87;;;11.70;;
47958;SDS011;33718;50.910;-1.514;2023-03-01T04:52:45;19.80;;;13.27;;
47958;SDS011;33718;50.910;-1.514;2023-03-01T04:54:47;18.38;;;13.55;;
47958;SDS011;33718;50.910;-1.514;2023-03-01T04:56:51;29.63;;;14.00;;
47958;SDS011;33718;50.910;-1.514;2023-03-01T04:58:59;18.63;;;13.30;;
47958;SDS011;33718;50.910;-1.514;2023-03-01T05:01:12;17.50;;;13.23;;
47958;SDS011;33718;50.910;-1.514;2023-03-01T05:03:20;19.10;;;13.85;;
47958;SDS011;33718;50.910;-1.514;2023-03-01T05:05:32;23.00;;;13.65;;
47958;SDS011;33718;50.910;-1.514;2023-03-01T05:07:40;18.23;;;13.27;;
47958;SDS011;33718;50.910;-1.514;2023-03-01T05:09:41;22.40;;;13.02;;
47958;SDS011;33718;50.910;-1.514;2023-03-01T05:11:43;18.40;;;13.05;;
47958;SDS011;33718;50.910;-1.514;2023-03-01T05:14:03;22.27;;;13.95;;
47958;SDS011;33718;50.910;-1.514;2023-03-01T05:16:05;24.60;;;13.60;;
47958;SDS011;33718;50.910;-1.514;2023-03-01T05:18:10;18.40;;;14.00;;
47958;SDS011;33718;50.910;-1.514;2023-03-01T05:20:15;23.65;;;14.70;;
47958;SDS011;33718;50.910;-1.514;2023-03-01T05:22:16;18.45;;;13.30;;
47958;SDS011;33718;50.910;-1.514;2023-03-01T05:24:21;24.67;;;13.55;;
47958;SDS011;33718;50.910;-1.514;2023-03-01T05:26:26;20.48;;;14.25;;
47958;SDS011;33718;50.910;-1.514;2023-03-01T05:28:33;23.10;;;13.52;;
47958;SDS011;33718;50.910;-1.514;2023-03-01T05:30:37;20.45;;;14.27;;
47958;SDS011;33718;50.910;-1.514;2023-03-01T05:32:46;22.98;;;13.75;;
47958;SDS011;33718;50.910;-1.514;2023-03-01T05:34:51;20.27;;;14.43;;
47958;SDS011;33718;50.910;-1.514;2023-03-01T05:36:53;20.20;;;12.98;;
47958;SDS011;33718;50.910;-1.514;2023-03-01T05:39:13;21.23;;;13.35;;
47958;SDS011;33718;50.910;-1.514;2023-03-01T05:41:17;22.73;;;13.30;;
47958;SDS011;33718;50.910;-1.514;2023-03-01T05:43:19;20.85;;;13.88;;
47958;SDS011;33718;50.910;-1.514;2023-03-01T05:45:42;22.65;;;14.95;;
47958;SDS011;33718;50.910;-1.514;2023-03-01T05:47:57;17.83;;;13.57;;
47958;SDS011;33718;50.910;-1.514;2023-03-01T05:50:06;22.30;;;13.68;;
47958;SDS011;33718;50.910;-1.514;2023-03-01T05:52:18;22.38;;;12.73;;
47958;SDS011;33718;50.910;-1.514;2023-03-01T05:54:38;20.88;;;13.60;;
47958;SDS011;33718;50.910;-1.514;2023-03-01T05:56:55;22.08;;;14.07;;
47958;SDS011;33718;50.910;-1.514;2023-03-01T05:59:06;20.88;;;12.02;;
47958;SDS011;33718;50.910;-1.514;2023-03-01T06:01:37;17.33;;;11.40;;
47958;SDS011;33718;50.910;-1.514;2023-03-01T06:03:53;11.93;;;8.55;;
47958;SDS011;33718;50.910;-1.514;2023-03-01T06:06:06;10.15;;;7.78;;
47958;SDS011;33718;50.910;-1.514;2023-03-01T06:08:18;10.93;;;7.03;;
47958;SDS011;33718;50.910;-1.514;2023-03-01T06:10:31;9.50;;;5.95;;
47958;SDS011;33718;50.910;-1.514;2023-03-01T06:12:48;8.13;;;5.53;;
47958;SDS011;33718;50.910;-1.514;2023-03-01T06:17:16;6.70;;;4.90;;
47958;SDS011;33718;50.910;-1.514;2023-03-01T06:19:20;4.82;;;4.20;;
47958;SDS011;33718;50.910;-1.514;2023-03-01T06:21:21;9.00;;;3.70;;
47958;SDS011;33718;50.910;-1.514;2023-03-01T06:23:23;4.07;;;3.53;;
47958;SDS011;33718;50.910;-1.514;2023-03-01T06:25:25;5.40;;;3.30;;
47958;SDS011;33718;50.910;-1.514;2023-03-01T06:27:30;4.90;;;4.43;;
47958;SDS011;33718;50.910;-1.514;2023-03-01T06:29:34;3.00;;;2.72;;
47958;SDS011;33718;50.910;-1.514;2023-03-01T06:31:36;4.18;;;2.58;;
47958;SDS011;33718;50.910;-1.514;2023-03-01T06:33:43;3.30;;;3.00;;
47958;SDS011;33718;50.910;-1.514;2023-03-01T06:35:48;4.20;;;2.88;;
47958;SDS011;33718;50.910;-1.514;2023-03-01T06:37:53;3.75;;;2.97;;
47958;SDS011;33718;50.910;-1.514;2023-03-01T06:39:57;5.35;;;2.53;;
47958;SDS011;33718;50.910;-1.514;2023-03-01T06:41:58;3.17;;;2.83;;
47958;SDS011;33718;50.910;-1.514;2023-03-01T06:44:00;3.25;;;2.75;;
47958;SDS011;33718;50.910;-1.514;2023-03-01T06:46:05;3.30;;;2.90;;
47958;SDS011;33718;50.910;-1.514;2023-03-01T06:48:11;4.43;;;4.03;;
47958;SDS011;33718;50.910;-1.514;2023-03-01T06:50:13;5.40;;;3.05;;
47958;SDS011;33718;50.910;-1.514;2023-03-01T06:52:18;4.88;;;3.10;;
47958;SDS011;33718;50.910;-1.514;2023-03-01T06:54:19;6.63;;;3.67;;
47958;SDS011;33718;50.910;-1.514;2023-03-01T06:56:23;4.90;;;3.47;;
47958;SDS011;33718;50.910;-1.514;2023-03-01T06:58:28;3.20;;;2.85;;
47958;SDS011;33718;50.910;-1.514;2023-03-01T07:00:29;3.25;;;2.80;;
47958;SDS011;33718;50.910;-1.514;2023-03-01T07:02:37;5.47;;;3.58;;
47958;SDS011;33718;50.910;-1.514;2023-03-01T07:04:41;3.22;;;2.80;;
47958;SDS011;33718;50.910;-1.514;2023-03-01T07:06:45;4.88;;;3.40;;
47958;SDS011;33718;50.910;-1.514;2023-03-01T07:08:47;3.40;;;3.10;;
47958;SDS011;33718;50.910;-1.514;2023-03-01T07:10:54;3.53;;;3.22;;
47958;SDS011;33718;50.910;-1.514;2023-03-01T07:12:58;4.38;;;3.47;;
47958;SDS011;33718;50.910;-1.514;2023-03-01T07:15:06;4.93;;;3.50;;
47958;SDS011;33718;50.910;-1.514;2023-03-01T07:17:07;4.70;;;3.65;;
47958;SDS011;33718;50.910;-1.514;2023-03-01T07:19:09;3.72;;;3.30;;
47958;SDS011;33718;50.910;-1.514;2023-03-01T07:21:29;3.70;;;3.05;;
47958;SDS011;33718;50.910;-1.514;2023-03-01T07:23:31;6.43;;;4.18;;
47958;SDS011;33718;50.910;-1.514;2023-03-01T07:25:54;5.15;;;3.35;;
47958;SDS011;33718;50.910;-1.514;2023-03-01T07:27:56;4.70;;;3.58;;
47958;SDS011;33718;50.910;-1.514;2023-03-01T07:30:01;4.10;;;3.70;;
47958;SDS011;33718;50.910;-1.514;2023-03-01T07:32:03;4.53;;;3.70;;
47958;SDS011;33718;50.910;-1.514;2023-03-01T07:34:07;7.45;;;3.83;;
47958;SDS011;33718;50.910;-1.514;2023-03-01T07:36:12;4.93;;;4.50;;
47958;SDS011;33718;50.910;-1.514;2023-03-01T07:38:14;6.53;;;3.90;;
47958;SDS011;33718;50.910;-1.514;2023-03-01T07:40:15;7.13;;;4.05;;
47958;SDS011;33718;50.910;-1.514;2023-03-01T07:42:35;6.35;;;4.05;;
47958;SDS011;33718;50.910;-1.514;2023-03-01T07:44:37;6.00;;;3.67;;
47958;SDS011;33718;50.910;-1.514;2023-03-01T07:48:43;4.70;;;4.00;;
47958;SDS011;33718;50.910;-1.514;2023-03-01T07:52:51;8.02;;;4.70;;
47958;SDS011;33718;50.910;-1.514;2023-03-01T07:54:53;7.30;;;4.32;;
47958;SDS011;33718;50.910;-1.514;2023-03-01T07:56:55;4.63;;;3.67;;
47958;SDS011;33718;50.910;-1.514;2023-03-01T07:58:58;6.07;;;4.20;;
47958;SDS011;33718;50.910;-1.514;2023-03-01T08:01:03;5.80;;;3.65;;
47958;SDS011;33718;50.910;-1.514;2023-03-01T08:03:08;4.55;;;3.85;;
47958;SDS011;33718;50.910;-1.514;2023-03-01T08:05:09;4.47;;;3.80;;
47958;SDS011;33718;50.910;-1.514;2023-03-01T08:07:11;3.85;;;3.50;;
47958;SDS011;33718;50.910;-1.514;2023-03-01T08:09:15;5.03;;;3.65;;
47958;SDS011;33718;50.910;-1.514;2023-03-01T08:11:19;6.45;;;3.92;;
47958;SDS011;33718;50.910;-1.514;2023-03-01T08:13:21;4.60;;;2.90;;
47958;SDS011;33718;50.910;-1.514;2023-03-01T08:15:26;4.38;;;3.47;;
47958;SDS011;33718;50.910;-1.514;2023-03-01T08:17:31;4.50;;;3.63;;
47958;SDS011;33718;50.910;-1.514;2023-03-01T08:21:39;5.22;;;4.40;;
47958;SDS011;33718;50.910;-1.514;2023-03-01T08:25:48;8.48;;;4.38;;
47958;SDS011;33718;50.910;-1.514;2023-03-01T08:27:52;5.10;;;4.07;;
47958;SDS011;33718;50.910;-1.514;2023-03-01T08:29:54;5.07;;;3.65;;
47958;SDS011;33718;50.910;-1.514;2023-03-01T08:34:00;5.70;;;4.20;;
47958;SDS011;33718;50.910;-1.514;2023-03-01T08:36:03;5.43;;;3.67;;
47958;SDS011;33718;50.910;-1.514;2023-03-01T08:38:23;7.35;;;4.05;;
47958;SDS011;33718;50.910;-1.514;2023-03-01T08:40:25;5.80;;;3.78;;
47958;SDS011;33718;50.910;-1.514;2023-03-01T08:42:26;5.40;;;3.58;;
47958;SDS011;33718;50.910;-1.514;2023-03-01T08:46:33;4.55;;;3.58;;
47958;SDS011;33718;50.910;-1.514;2023-03-01T08:48:36;7.28;;;4.43;;
47958;SDS011;33718;50.910;-1.514;2023-03-01T08:50:44;5.32;;;3.70;;
47958;SDS011;33718;50.910;-1.514;2023-03-01T08:53:05;4.30;;;3.25;;
47958;SDS011;33718;50.910;-1.514;2023-03-01T08:55:26;4.32;;;3.45;;
47958;SDS011;33718;50.910;-1.514;2023-03-01T08:57:28;8.57;;;4.72;;
47958;SDS011;33718;50.910;-1.514;2023-03-01T09:01:41;10.10;;;3.60;;
47958;SDS011;33718;50.910;-1.514;2023-03-01T09:03:47;5.82;;;3.08;;
47958;SDS011;33718;50.910;-1.514;2023-03-01T09:05:59;6.13;;;4.07;;
47958;SDS011;33718;50.910;-1.514;2023-03-01T09:08:01;4.88;;;3.33;;
47958;SDS011;33718;50.910;-1.514;2023-03-01T09:10:05;5.45;;;3.05;;
47958;SDS011;33718;50.910;-1.514;2023-03-01T09:12:09;5.00;;;3.72;;
47958;SDS011;33718;50.910;-1.514;2023-03-01T09:14:12;3.85;;;2.60;;
47958;SDS011;33718;50.910;-1.514;2023-03-01T09:16:15;3.05;;;2.67;;
47958;SDS011;33718;50.910;-1.514;2023-03-01T09:18:19;3.40;;;2.67;;
47958;SDS011;33718;50.910;-1.514;2023-03-01T09:20:39;11.65;;;2.90;;
47958;SDS011;33718;50.910;-1.514;2023-03-01T09:22:44;6.10;;;2.47;;
47958;SDS011;33718;50.910;-1.514;2023-03-01T09:24:46;4.50;;;2.28;;
47958;SDS011;33718;50.910;-1.514;2023-03-01T09:26:52;3.55;;;2.45;;
47958;SDS011;33718;50.910;-1.514;2023-03-01T09:28:55;3.45;;;2.70;;
47958;SDS011;33718;50.910;-1.514;2023-03-01T09:31:00;5.90;;;2.38;;
47958;SDS011;33718;50.910;-1.514;2023-03-01T09:33:05;2.83;;;2.25;;
47958;SDS011;33718;50.910;-1.514;2023-03-01T09:35:25;8.20;;;3.03;;
47958;SDS011;33718;50.910;-1.514;2023-03-01T09:39:36;5.95;;;3.70;;
47958;SDS011;33718;50.910;-1.514;2023-03-01T09:43:44;4.10;;;1.70;;
47958;SDS011;33718;50.910;-1.514;2023-03-01T09:45:46;7.00;;;2.75;;
47958;SDS011;33718;50.910;-1.514;2023-03-01T09:47:49;1.93;;;1.60;;
47958;SDS011;33718;50.910;-1.514;2023-03-01T09:52:33;4.90;;;1.75;;
47958;SDS011;33718;50.910;-1.514;2023-03-01T09:54:36;4.55;;;1.92;;
47958;SDS011;33718;50.910;-1.514;2023-03-01T09:58:59;6.68;;;1.80;;
47958;SDS011;33718;50.910;-1.514;2023-03-01T10:03:43;4.85;;;1.58;;
47958;SDS011;33718;50.910;-1.514;2023-03-01T10:05:55;4.07;;;1.55;;
47958;SDS011;33718;50.910;-1.514;2023-03-01T10:10:08;2.67;;;1.85;;
47958;SDS011;33718;50.910;-1.514;2023-03-01T10:12:22;14.25;;;2.42;;
47958;SDS011;33718;50.910;-1.514;2023-03-01T10:16:40;5.82;;;2.03;;
47958;SDS011;33718;50.910;-1.514;2023-03-01T10:18:45;5.55;;;1.90;;
47958;SDS011;33718;50.910;-1.514;2023-03-01T10:21:00;4.75;;;1.58;;
47958;SDS011;33718;50.910;-1.514;2023-03-01T10:23:07;2.92;;;1.15;;
47958;SDS011;33718;50.910;-1.514;2023-03-01T10:27:31;4.07;;;1.38;;
47958;SDS011;33718;50.910;-1.514;2023-03-01T10:29:39;6.00;;;1.40;;
47958;SDS011;33718;50.910;-1.514;2023-03-01T10:33:51;2.33;;;1.65;;
47958;SDS011;33718;50.910;-1.514;2023-03-01T10:35:58;1.77;;;0.70;;
47958;SDS011;33718;50.910;-1.514;2023-03-01T10:40:06;5.10;;;1.15;;
47958;SDS011;33718;50.910;-1.514;2023-03-01T10:46:41;0.82;;;0.57;;
47958;SDS011;33718;50.910;-1.514;2023-03-01T10:49:15;5.43;;;0.60;;
47958;SDS011;33718;50.910;-1.514;2023-03-01T10:51:17;2.10;;;0.77;;
47958;SDS011;33718;50.910;-1.514;2023-03-01T10:53:28;1.17;;;0.45;;
47958;SDS011;33718;50.910;-1.514;2023-03-01T10:55:35;1.25;;;0.55;;
47958;SDS011;33718;50.910;-1.514;2023-03-01T10:57:38;2.78;;;0.50;;
47958;SDS011;33718;50.910;-1.514;2023-03-01T10:59:43;2.47;;;0.80;;
47958;SDS011;33718;50.910;-1.514;2023-03-01T11:04:24;0.90;;;0.32;;
47958;SDS011;33718;50.910;-1.514;2023-03-01T11:06:29;0.70;;;0.60;;
47958;SDS011;33718;50.910;-1.514;2023-03-01T11:10:35;1.55;;;0.47;;
47958;SDS011;33718;50.910;-1.514;2023-03-01T11:12:40;6.38;;;0.80;;
47958;SDS011;33718;50.910;-1.514;2023-03-01T11:14:48;0.75;;;0.40;;
47958;SDS011;33718;50.910;-1.514;2023-03-01T11:17:02;0.57;;;0.20;;
47958;SDS011;33718;50.910;-1.514;2023-03-01T11:21:16;0.50;;;0.15;;
47958;SDS011;33718;50.910;-1.514;2023-03-01T11:23:21;1.52;;;0.50;;
47958;SDS011;33718;50.910;-1.514;2023-03-01T11:25:26;3.47;;;0.40;;
47958;SDS011;33718;50.910;-1.514;2023-03-01T11:27:48;3.80;;;0.30;;
47958;SDS011;33718;50.910;-1.514;2023-03-01T11:30:01;2.70;;;0.95;;
47958;SDS011;33718;50.910;-1.514;2023-03-01T11:32:11;1.25;;;0.40;;
47958;SDS011;33718;50.910;-1.514;2023-03-01T11:34:19;4.70;;;1.00;;
47958;SDS011;33718;50.910;-1.514;2023-03-01T11:36:26;3.70;;;0.55;;
47958;SDS011;33718;50.910;-1.514;2023-03-01T11:38:32;0.22;;;0.20;;
47958;SDS011;33718;50.910;-1.514;2023-03-01T11:45:08;1.80;;;0.40;;
47958;SDS011;33718;50.910;-1.514;2023-03-01T11:52:00;2.92;;;0.50;;
47958;SDS011;33718;50.910;-1.514;2023-03-01T11:58:32;0.30;;;0.30;;
47958;SDS011;33718;50.910;-1.514;2023-03-01T12:01:00;0.35;;;0.35;;
47958;SDS011;33718;50.910;-1.514;2023-03-01T12:03:16;1.10;;;0.20;;
47958;SDS011;33718;50.910;-1.514;2023-03-01T12:07:56;0.60;;;0.60;;
47958;SDS011;33718;50.910;-1.514;2023-03-01T12:12:45;2.17;;;0.47;;
47958;SDS011;33718;50.910;-1.514;2023-03-01T12:41:35;3.22;;;0.90;;
47958;SDS011;33718;50.910;-1.514;2023-03-01T12:48:02;1.15;;;0.90;;
47958;SDS011;33718;50.910;-1.514;2023-03-01T12:50:17;1.00;;;0.82;;
47958;SDS011;33718;50.910;-1.514;2023-03-01T12:54:52;1.75;;;0.95;;
47958;SDS011;33718;50.910;-1.514;2023-03-01T12:56:55;1.95;;;1.20;;
47958;SDS011;33718;50.910;-1.514;2023-03-01T12:59:15;1.33;;;0.95;;
47958;SDS011;33718;50.910;-1.514;2023-03-01T13:06:30;4.38;;;1.40;;
47958;SDS011;33718;50.910;-1.514;2023-03-01T13:10:54;1.77;;;1.27;;
47958;SDS011;33718;50.910;-1.514;2023-03-01T13:14:59;3.13;;;1.10;;
47958;SDS011;33718;50.910;-1.514;2023-03-01T13:17:20;2.50;;;1.15;;
47958;SDS011;33718;50.910;-1.514;2023-03-01T13:19:29;2.88;;;1.20;;
47958;SDS011;33718;50.910;-1.514;2023-03-01T13:21:31;2.50;;;1.30;;
47958;SDS011;33718;50.910;-1.514;2023-03-01T13:23:36;1.38;;;0.90;;
47958;SDS011;33718;50.910;-1.514;2023-03-01T13:32:41;0.85;;;0.70;;
47958;SDS011;33718;50.910;-1.514;2023-03-01T13:34:46;2.10;;;0.70;;
47958;SDS011;33718;50.910;-1.514;2023-03-01T13:36:51;1.52;;;0.80;;
47958;SDS011;33718;50.910;-1.514;2023-03-01T13:39:26;1.10;;;0.77;;
47958;SDS011;33718;50.910;-1.514;2023-03-01T13:43:44;2.20;;;0.82;;
47958;SDS011;33718;50.910;-1.514;2023-03-01T13:45:47;3.55;;;0.60;;
47958;SDS011;33718;50.910;-1.514;2023-03-01T13:47:50;2.45;;;0.90;;
47958;SDS011;33718;50.910;-1.514;2023-03-01T13:50:00;1.83;;;0.88;;
47958;SDS011;33718;50.910;-1.514;2023-03-01T13:52:20;4.40;;;0.80;;
47958;SDS011;33718;50.910;-1.514;2023-03-01T13:54:26;3.10;;;0.90;;
47958;SDS011;33718;50.910;-1.514;2023-03-01T13:56:33;1.27;;;1.13;;
47958;SDS011;33718;50.910;-1.514;2023-03-01T13:58:50;3.70;;;1.05;;
47958;SDS011;33718;50.910;-1.514;2023-03-01T14:03:33;1.77;;;1.05;;
47958;SDS011;33718;50.910;-1.514;2023-03-01T14:05:42;1.90;;;1.00;;
47958;SDS011;33718;50.910;-1.514;2023-03-01T14:07:43;2.30;;;0.75;;
47958;SDS011;33718;50.910;-1.514;2023-03-01T14:10:04;1.40;;;0.80;;
47958;SDS011;33718;50.910;-1.514;2023-03-01T14:12:21;1.40;;;0.80;;
47958;SDS011;33718;50.910;-1.514;2023-03-01T14:14:42;0.73;;;0.73;;
47958;SDS011;33718;50.910;-1.514;2023-03-01T14:21:12;2.55;;;0.75;;
47958;SDS011;33718;50.910;-1.514;2023-03-01T14:23:21;2.85;;;1.08;;
47958;SDS011;33718;50.910;-1.514;2023-03-01T14:27:25;3.92;;;0.73;;
47958;SDS011;33718;50.910;-1.514;2023-03-01T14:29:38;2.83;;;0.57;;
47958;SDS011;33718;50.910;-1.514;2023-03-01T14:31:40;2.03;;;0.80;;
47958;SDS011;33718;50.910;-1.514;2023-03-01T14:33:59;6.30;;;0.50;;
47958;SDS011;33718;50.910;-1.514;2023-03-01T14:36:08;1.17;;;0.50;;
47958;SDS011;33718;50.910;-1.514;2023-03-01T14:38:19;1.30;;;0.68;;
47958;SDS011;33718;50.910;-1.514;2023-03-01T14:42:35;6.95;;;0.68;;
47958;SDS011;33718;50.910;-1.514;2023-03-01T14:44:40;1.05;;;0.50;;
47958;SDS011;33718;50.910;-1.514;2023-03-01T14:46:43;2.33;;;0.43;;
47958;SDS011;33718;50.910;-1.514;2023-03-01T14:48:47;4.45;;;0.55;;
47958;SDS011;33718;50.910;-1.514;2023-03-01T14:50:49;0.98;;;0.50;;
47958;SDS011;33718;50.910;-1.514;2023-03-01T14:52:53;3.28;;;0.65;;
47958;SDS011;33718;50.910;-1.514;2023-03-01T14:55:01;2.10;;;0.60;;
47958;SDS011;33718;50.910;-1.514;2023-03-01T14:57:03;1.15;;;0.88;;
47958;SDS011;33718;50.910;-1.514;2023-03-01T14:59:07;4.22;;;1.45;;
47958;SDS011;33718;50.910;-1.514;2023-03-01T15:01:16;4.57;;;1.00;;
47958;SDS011;33718;50.910;-1.514;2023-03-01T15:05:42;2.38;;;0.77;;